Latest Coastal Weather Observations for Portland Harbour

IDV60701

Issued at 11:02 am EDT Saturday 25 February 2017 (issued every 10 minutes, with the page automatically refreshed every 10 minutes)

About coastal observations | Map of coastal stations | Coastal observations for VIC | Marine services | Other Formats
Station Details ID: 090192 Name: PORTLAND NTC AWS Lat: -38.34 Lon: 141.61 Height: 0.0 m
Data from the previous 72 hours. | See also: Recent months for locations in Victoria
Date/Time
EDT
Temp
°C
Wind Pressure Rain since
9am
mm
Weather Cloud Vis
km
Sea
Height
m
Swell
Dir  Spd
kts
Gust
kts
hPa Trend Height
m
Period
s
Dir
25/11:00am 15.9 SE 15 19 1026.9 - - - - - - - - -
25/10:30am 15.7 SE 16 21 1026.8 - - - - - - - - -
25/10:00am 16.1 SE 12 18 1026.5 - - - - - - - - -
25/09:30am 15.9 SE 12 17 1026.8 - - - - - - - - -
25/09:00am 15.6 SSE 12 17 1027.0 - - - - - - - - -
25/08:30am 15.4 SSE 14 21 1026.8 - - - - - - - - -
25/08:00am 15.4 SE 14 20 1026.6 - - - - - - - - -
25/07:30am 15.4 SSE 14 19 1026.3 - - - - - - - - -
25/07:00am 15.5 SSE 14 19 1025.9 - - - - - - - - -
25/06:30am 15.4 SE 14 19 1025.7 - - - - - - - - -
25/06:00am 15.8 SE 13 18 1025.6 - - - - - - - - -
25/05:30am 15.7 SSE 11 15 1025.6 - - - - - - - - -
25/05:00am 15.8 SSE 12 15 1025.6 - - - - - - - - -
25/04:30am 15.8 SSE 12 15 1025.5 - - - - - - - - -
25/04:00am 16.0 SE 11 15 1025.5 - - - - - - - - -
25/03:30am 16.0 SSE 11 14 1025.8 - - - - - - - - -
25/03:00am 16.1 SE 9 13 1025.9 - - - - - - - - -
25/02:30am 16.4 SE 9 13 1026.1 - - - - - - - - -
25/02:00am 16.3 SE 10 13 1026.1 - - - - - - - - -
25/01:30am 16.3 SE 7 10 1026.4 - - - - - - - - -
25/01:00am 16.3 SSE 8 10 1026.7 - - - - - - - - -
25/12:30am 16.2 SSE 9 11 1026.8 - - - - - - - - -
25/12:00am 16.3 SSE 10 14 1026.7 - - - - - - - - -
 
Date/Time
EDT
Temp
°C
Wind Pressure Rain since
9am
mm
Weather Cloud Vis
km
Sea
Height
m
Swell
Dir  Spd
kts
Gust
kts
hPa Trend Height
m
Period
s
Dir
24/11:30pm 16.1 SSE 10 13 1026.8 - - - - - - - - -
24/11:00pm 16.4 SE 12 15 1026.9 - - - - - - - - -
24/10:30pm 16.4 SSE 9 12 1026.9 - - - - - - - - -
24/10:00pm 16.6 SE 10 12 1026.9 - - - - - - - - -
24/09:30pm 16.7 SSE 8 13 1026.7 - - - - - - - - -
24/09:00pm 16.5 S 7 10 1026.6 - - - - - - - - -
24/08:30pm 16.6 S 8 10 1026.5 - - - - - - - - -
24/08:00pm 16.9 S 9 13 1026.5 - - - - - - - - -
24/07:30pm 16.7 S 9 12 1026.3 - - - - - - - - -
24/07:00pm 17.1 S 9 13 1026.2 - - - - - - - - -
24/06:30pm 17.0 S 10 14 1026.2 - - - - - - - - -
24/06:00pm 17.2 S 10 14 1026.1 - - - - - - - - -
24/05:30pm 16.7 SSE 9 13 1026.1 - - - - - - - - -
24/05:00pm 16.3 SSW 12 16 1026.0 - - - - - - - - -
24/04:30pm 17.5 S 9 15 1025.9 - - - - - - - - -
24/04:00pm 17.4 SSW 10 15 1025.9 - - - - - - - - -
24/03:30pm 17.4 SSW 10 16 1026.2 - - - - - - - - -
24/03:00pm 17.5 SSW 11 17 1026.2 - - - - - - - - -
24/02:30pm 17.4 SSW 8 13 1026.4 - - - - - - - - -
24/02:00pm 17.4 SSW 11 15 1026.5 - - - - - - - - -
24/01:30pm 17.5 SSW 11 17 1026.5 - - - - - - - - -
24/01:00pm 17.2 SSW 14 17 1026.7 - - - - - - - - -
24/12:30pm 17.1 SSW 11 14 1026.8 - - - - - - - - -
24/12:00pm 17.4 SSW 10 14 1026.8 - - - - - - - - -
24/11:30am 17.0 SSW 11 15 1026.8 - - - - - - - - -
24/11:00am 17.1 SSW 10 14 1026.6 - - - - - - - - -
24/10:30am 16.9 SSW 10 13 1026.4 - - - - - - - - -
24/10:00am 16.8 SSW 9 13 1026.2 - - - - - - - - -
24/09:30am 16.7 SSW 11 14 1025.9 - - - - - - - - -
24/09:00am 16.6 SW 5 7 1025.6 - - - - - - - - -
24/08:30am 16.3 SW 5 7 1025.2 - - - - - - - - -
24/08:00am 16.2 SW 5 7 1024.9 - - - - - - - - -
24/07:30am 16.3 SSW 7 9 1024.6 - - - - - - - - -
24/07:00am 16.1 SSW 5 7 1024.3 - - - - - - - - -
24/06:30am 16.3 SSW 7 10 1023.9 - - - - - - - - -
24/06:00am 16.1 SW 5 8 1023.8 - - - - - - - - -
24/05:30am 15.8 SW 3 4 1023.6 - - - - - - - - -
24/05:00am 16.2 SW 6 9 1023.5 - - - - - - - - -
24/04:30am 16.1 SSW 5 8 1023.5 - - - - - - - - -
24/04:00am 16.1 SSW 5 8 1023.6 - - - - - - - - -
24/03:30am 15.8 SSW 5 6 1023.5 - - - - - - - - -
24/03:00am 15.9 SW 3 5 1023.4 - - - - - - - - -
24/02:30am 15.6 WSW 3 4 1023.5 - - - - - - - - -
24/02:00am 15.9 WSW 3 4 1023.6 - - - - - - - - -
24/01:30am 16.2 SW 5 7 1023.7 - - - - - - - - -
24/01:00am 16.3 SW 5 7 1024.0 - - - - - - - - -
24/12:30am 16.1 SW 4 6 1024.1 - - - - - - - - -
24/12:00am 15.9 SW 4 6 1024.0 - - - - - - - - -
 
Date/Time
EDT
Temp
°C
Wind Pressure Rain since
9am
mm
Weather Cloud Vis
km
Sea
Height
m
Swell
Dir  Spd
kts
Gust
kts
hPa Trend Height
m
Period
s
Dir
23/11:30pm 16.1 SSW 6 8 1023.8 - - - - - - - - -
23/11:00pm 16.2 SSW 6 9 1023.8 - - - - - - - - -
23/10:30pm 16.3 SSW 5 7 1023.7 - - - - - - - - -
23/10:00pm 16.4 SSW 6 8 1023.6 - - - - - - - - -
23/09:30pm 16.4 SSW 5 7 1023.1 - - - - - - - - -
23/09:00pm 16.3 SW 7 9 1022.7 - - - - - - - - -
23/08:30pm 16.4 SSW 6 9 1022.3 - - - - - - - - -
23/08:00pm 16.3 SSW 5 7 1021.9 - - - - - - - - -
23/07:30pm 16.6 SW 10 13 1021.5 - - - - - - - - -
23/07:00pm 16.3 SW 8 11 1021.4 - - - - - - - - -
23/06:30pm 16.9 SW 11 15 1021.1 - - - - - - - - -
23/06:00pm 16.6 SW 10 14 1021.0 - - - - - - - - -
23/05:30pm 16.6 SW 10 14 1020.6 - - - - - - - - -
23/05:00pm 16.5 SW 11 16 1020.5 - - - - - - - - -
23/04:30pm 16.3 WSW 11 16 1020.3 - - - - - - - - -
23/04:00pm 16.2 SW 11 15 1020.2 - - - - - - - - -
23/03:30pm 16.7 SW 11 14 1020.0 - - - - - - - - -
23/03:00pm 16.6 SW 10 13 1019.7 - - - - - - - - -
23/02:30pm 17.1 SW 12 16 1019.5 - - - - - - - - -
23/02:00pm 18.0 SW 9 13 1019.1 - - - - - - - - -
23/01:30pm 17.5 SW 9 13 1019.0 - - - - - - - - -
23/01:00pm 17.1 SW 12 17 1018.9 - - - - - - - - -
23/12:30pm 17.6 SW 12 18 1018.9 - - - - - - - - -
23/12:00pm 17.6 SW 13 17 1018.7 - - - - - - - - -
23/11:30am 17.6 SW 12 17 1018.3 - - - - - - - - -
23/11:00am 16.6 WSW 15 21 1018.0 - - - - - - - - -
23/10:30am 17.8 SW 16 23 1017.4 - - - - - - - - -
23/10:00am 17.6 WSW 17 24 1017.2 - - - - - - - - -
23/09:30am 16.9 WSW 12 17 1016.8 - - - - - - - - -
23/09:00am 16.5 WSW 15 23 1016.3 - - - - - - - - -
23/08:30am 17.7 W 11 17 1015.7 - - - - - - - - -
23/08:00am 17.5 WSW 11 17 1015.1 - - - - - - - - -
23/07:30am 17.2 W 13 21 1014.5 - - - - - - - - -
23/07:00am 16.9 W 16 24 1013.8 - - - - - - - - -
23/06:30am 17.5 W 12 20 1013.1 - - - - - - - - -
23/06:00am 17.4 W 11 16 1012.6 - - - - - - - - -
23/05:30am 17.4 W 14 22 1012.2 - - - - - - - - -
23/05:00am 17.5 W 14 23 1011.8 - - - - - - - - -
23/04:30am 17.4 WNW 16 27 1011.2 - - - - - - - - -
23/04:28am 17.4 WNW 15 26 1011.3 - - - - - - - - -
23/04:00am 17.6 WNW 18 27 1011.0 - - - - - - - - -
23/03:36am 17.4 WNW 15 27 1010.8 - - - - - - - - -
23/03:30am 17.4 WNW 15 23 1010.8 - - - - - - - - -
23/03:00am 17.5 WNW 16 24 1010.6 - - - - - - - - -
23/02:42am 17.6 WNW 15 26 1010.4 - - - - - - - - -
23/02:30am 17.8 WNW 17 24 1010.4 - - - - - - - - -
23/02:02am 18.1 WNW 17 27 1010.3 - - - - - - - - -
23/02:00am 18.2 WNW 18 28 1010.3 - - - - - - - - -
23/01:30am 18.6 WNW 21 31 1010.4 - - - - - - - - -
23/01:00am 18.7 WNW 16 26 1010.3 - - - - - - - - -
23/12:32am 18.8 WNW 21 31 1010.0 - - - - - - - - -
23/12:30am 18.9 WNW 22 31 1009.9 - - - - - - - - -
23/12:02am 19.1 WNW 18 29 1009.8 - - - - - - - - -
23/12:00am 19.1 WNW 18 26 1009.9 - - - - - - - - -
 
Date/Time
EDT
Temp
°C
Wind Pressure Rain since
9am
mm
Weather Cloud Vis
km
Sea
Height
m
Swell
Dir  Spd
kts
Gust
kts
hPa Trend Height
m
Period
s
Dir
22/11:30pm 19.4 WNW 17 26 1009.6 - - - - - - - - -
22/11:00pm 19.8 WNW 20 31 1009.6 - - - - - - - - -
22/10:35pm 20.3 WNW 16 27 1009.4 - - - - - - - - -
22/10:30pm 20.3 WNW 16 22 1009.5 - - - - - - - - -
22/10:07pm 20.7 WNW 15 26 1009.2 - - - - - - - - -
22/10:00pm 20.6 WNW 14 22 1009.4 - - - - - - - - -
22/09:30pm 21.1 NW 15 23 1008.8 - - - - - - - - -
22/09:03pm 21.4 WNW 17 30 1008.1 - - - - - - - - -
22/09:00pm 21.3 WNW 16 22 1008.2 - - - - - - - - -
22/08:30pm 21.8 WNW 15 24 1007.6 - - - - - - - - -
22/08:00pm 21.1 WNW 17 25 1006.7 - - - - - - - - -
22/07:30pm 20.6 WNW 18 31 1006.5 - - - - - - - - -
22/07:02pm 20.3 W 21 32 1006.7 - - - - - - - - -
22/07:00pm 20.3 W 21 30 1006.8 - - - - - - - - -
22/06:30pm 20.3 W 23 34 1006.6 - - - - - - - - -
22/06:01pm 20.3 W 21 31 1006.3 - - - - - - - - -
22/06:00pm 20.4 W 22 31 1006.4 - - - - - - - - -
22/05:30pm 20.7 W 23 33 1005.9 - - - - - - - - -
22/05:00pm 21.3 W 22 32 1005.3 - - - - - - - - -
22/04:30pm 22.7 W 19 34 1005.0 - - - - - - - - -
22/04:10pm 23.1 W 20 30 1005.1 - - - - - - - - -
22/04:00pm 23.6 W 22 30 1005.0 - - - - - - - - -
22/03:32pm 26.1 W 18 30 1005.0 - - - - - - - - -
22/03:30pm 26.1 WNW 19 27 1004.9 - - - - - - - - -
22/03:28pm 28.1 NW 18 27 1004.8 - - - - - - - - -
22/03:00pm 31.3 NNW 19 30 1004.6 - - - - - - - - -
22/02:38pm 30.6 NNW 24 34 1005.4 - - - - - - - - -
22/02:30pm 29.1 NNW 24 33 1005.4 - - - - - - - - -
22/02:00pm 28.9 N 25 36 1006.1 - - - - - - - - -
22/01:30pm 27.3 N 24 31 1006.6 - - - - - - - - -
22/01:00pm 27.2 N 27 37 1007.0 - - - - - - - - -
22/12:30pm 26.2 N 24 36 1007.6 - - - - - - - - -
22/12:17pm 26.3 N 24 35 1007.8 - - - - - - - - -
22/12:00pm 25.7 N 21 28 1007.9 - - - - - - - - -
22/11:30am 25.4 N 25 31 1008.3 - - - - - - - - -

Other Formats:

Comma delimited format used in spreadsheet applications
http://www.bom.gov.au/fwo/IDV60701/IDV60701.95826.axf

JavaScript Object Notation format (JSON) in row-major order
http://www.bom.gov.au/fwo/IDV60701/IDV60701.95826.json